Goodrich, ND (58444)

3:05 PM CST on December 21, 2014 (GMT -0600)
Harvey | Change Station
CLOSE
Current Station
Airport
Location: Harvey,
Elevation: 1608 ft
Nearby Weather Stations
Active Advisory: Special Statement

Elev 1608 ft 47.79 °N, 99.93 °W | Updated 30 minutes ago

Partly Cloudy
Partly Cloudy
32 °F
Feels Like 23 °F
N
12
Wind Variable Wind from SE
Gusts 18 mph

Today
High -- | Low -- °F
--% Chance of Precip.
Yesterday
High -- | Low -- °F
Precip. -- in
8:25 AM 4:52 PM
Waning Crescent, 0% visible
Pressure 29.46 in
Visibility 10.0 miles
Clouds Few 11000 ft
Windchill 23 °F
Dew Point 32 °F
Humidity 100%
Rainfall 0.00 in
Snow Depth Not available.
UV 1 out of 12
Pollen .10 out of 12
Air Quality Not available.
Flu Activity Not available.
METAR K5H4 212035Z AUTO 13010G16KT 10SM UP FEW110 00/00 A2946 RMK AO2

More Conditions Fewer Conditions

Pressure 29.46 in
Visibility 10.0 miles
Clouds Few 11000 ft
Windchill 23 °F
Dew Point 32 °F
Humidity 100%
Rainfall 0.00 in
Snow Depth Not available.
UV 1 out of 12
Pollen .10 out of 12
Air Quality Not available.
Flu Activity Not available.
METAR K5H4 212035Z AUTO 13010G16KT 10SM UP FEW110 00/00 A2946 RMK AO2

More Conditions Fewer Conditions

10-Day Weather Forecast

Almanac

Astronomy

Dec. 21, 2014 Rise Set
Actual Time
Civil Twilight
Nautical Twilight
Astronomical Twilight
Moon
Length of Visible Light
Length of Day
Tomorrow will be .
, % of the Moon is Illuminated

Today's Extremes

State Highs State Lows

Community

WunderPhotos

Upload Photos

1,779,478 photos uploaded!

WunderBlogs® & News

Nearby

Air Quality

  Air Quality AQ Index Pollutant
Not available.

Snow Depth

Station Depth Elevation

Earthquake Activity

City Distance Mag. Time & Date
Minimum magnitude displayed is 2.5.

Coastal Water Temperatures

Place Temperature

Nearby Weather Stations